Time;durP1;ratioP1;P1;durP2;ratioP2;P2;SDS_P1;SDS_P2;PMS_P1;PMS_P2;Temp;Humidity;BMP_temperature;BMP_pressure;BME280_temperature;BME280_humidity;BME280_pressure;Samples;Min_cycle;Max_cycle;Signal;HPM_P1;HPM_P2
2023/11/06 00:00:08;;;;;;;32.27;30.30;;;9.90;99.90;;;;;;5013459;28;20479;-72
2023/11/06 00:02:35;;;;;;;28.43;26.53;;;9.90;99.90;;;;;;5013140;28;20460;-72
2023/11/06 00:05:04;;;;;;;28.37;27.00;;;10.00;99.90;;;;;;5012849;28;20544;-72
2023/11/06 00:07:32;;;;;;;26.57;25.37;;;10.00;99.90;;;;;;5013049;28;20449;-72
2023/11/06 00:09:59;;;;;;;24.83;23.20;;;9.90;99.90;;;;;;5013261;28;20480;-72
2023/11/06 00:12:27;;;;;;;25.23;23.67;;;10.00;99.90;;;;;;5012883;28;20456;-72
2023/11/06 00:14:54;;;;;;;20.67;19.57;;;10.00;99.90;;;;;;5012840;28;20488;-72
2023/11/06 00:17:22;;;;;;;17.00;15.27;;;10.00;99.90;;;;;;5013313;28;20458;-72
2023/11/06 00:19:49;;;;;;;15.40;14.30;;;10.10;99.90;;;;;;5012845;28;20481;-72
2023/11/06 00:22:17;;;;;;;14.40;13.40;;;10.10;99.90;;;;;;5012855;28;20449;-72
2023/11/06 00:24:45;;;;;;;16.87;11.37;;;10.10;99.90;;;;;;5012670;28;20460;-72
2023/11/06 00:27:12;;;;;;;12.30;10.30;;;10.10;99.90;;;;;;5012706;28;20454;-72
2023/11/06 00:29:42;;;;;;;11.70;10.67;;;10.20;99.90;;;;;;5012646;28;20445;-72
2023/11/06 00:32:08;;;;;;;10.47;9.30;;;10.10;99.90;;;;;;5012512;28;20964;-72
2023/11/06 00:34:35;;;;;;;10.53;7.43;;;10.20;99.90;;;;;;5012767;28;20818;-72
2023/11/06 00:37:03;;;;;;;9.63;6.53;;;10.30;99.90;;;;;;5012619;28;20477;-72
2023/11/06 00:39:30;;;;;;;6.83;5.50;;;10.30;99.90;;;;;;5012690;28;20481;-72
2023/11/06 00:41:58;;;;;;;6.47;4.20;;;10.30;99.90;;;;;;5012752;28;20448;-72
2023/11/06 00:44:25;;;;;;;11.80;5.10;;;10.40;99.90;;;;;;5012328;28;20454;-72
2023/11/06 00:46:52;;;;;;;7.90;5.10;;;10.40;99.90;;;;;;5012305;28;20955;-72
2023/11/06 00:49:19;;;;;;;8.70;7.87;;;10.50;99.90;;;;;;5012587;28;20850;-72
2023/11/06 00:51:46;;;;;;;10.77;8.97;;;10.40;99.90;;;;;;5018607;28;20453;-72
2023/11/06 00:54:14;;;;;;;12.20;11.17;;;10.30;99.90;;;;;;5018847;28;20551;-72
2023/11/06 00:56:41;;;;;;;14.40;13.20;;;10.20;99.90;;;;;;5018837;28;20496;-72
2023/11/06 00:59:09;;;;;;;12.33;11.23;;;10.20;99.90;;;;;;5018678;28;20834;-72
2023/11/06 01:01:36;;;;;;;13.53;12.53;;;10.20;99.90;;;;;;5019087;28;20460;-72
2023/11/06 01:04:03;;;;;;;15.10;14.00;;;10.20;99.90;;;;;;5018996;28;20455;-72
2023/11/06 01:06:30;;;;;;;14.00;12.57;;;10.20;99.90;;;;;;5018916;28;20456;-72
2023/11/06 01:08:57;;;;;;;9.23;8.63;;;10.30;99.90;;;;;;5018827;28;20531;-72
2023/11/06 01:11:24;;;;;;;14.27;9.20;;;10.40;99.90;;;;;;5018771;28;20457;-72
2023/11/06 01:13:51;;;;;;;10.83;6.87;;;10.40;99.90;;;;;;5019046;28;20487;-72
2023/11/06 01:16:19;;;;;;;10.30;6.13;;;10.50;99.90;;;;;;5019081;28;20461;-72
2023/11/06 01:18:46;;;;;;;12.93;6.13;;;10.50;99.90;;;;;;5018547;28;20539;-72
2023/11/06 01:21:12;;;;;;;11.07;4.80;;;10.60;99.90;;;;;;5018883;28;20481;-72
2023/11/06 01:23:39;;;;;;;7.73;4.87;;;10.60;99.90;;;;;;5018746;28;20498;-73
2023/11/06 01:26:07;;;;;;;8.27;7.47;;;10.60;99.90;;;;;;5018508;28;20520;-73
2023/11/06 01:28:34;;;;;;;10.60;5.13;;;10.50;99.90;;;;;;5018700;28;20461;-72
2023/11/06 01:31:02;;;;;;;8.57;5.60;;;10.50;99.90;;;;;;5018582;28;20447;-72
2023/11/06 01:33:31;;;;;;;9.00;5.13;;;10.50;99.90;;;;;;5018768;28;20507;-73
2023/11/06 01:35:58;;;;;;;10.47;5.47;;;10.40;99.90;;;;;;5018773;28;20452;-73
2023/11/06 01:38:25;;;;;;;8.63;5.30;;;10.40;99.90;;;;;;5018815;28;20564;-72
2023/11/06 01:40:52;;;;;;;14.53;7.40;;;10.30;99.90;;;;;;5018360;28;20491;-72
2023/11/06 01:43:25;;;;;;;10.10;9.10;;;10.10;99.90;;;;;;5018461;28;20455;-72
2023/11/06 01:45:52;;;;;;;14.97;14.00;;;10.10;99.90;;;;;;5018494;28;20511;-72
2023/11/06 01:48:20;;;;;;;15.93;14.90;;;9.90;99.90;;;;;;5018269;28;20539;-72
2023/11/06 01:50:48;;;;;;;20.33;19.13;;;9.90;99.90;;;;;;5018546;28;20891;-72
2023/11/06 01:53:17;;;;;;;24.53;22.90;;;9.90;99.90;;;;;;5018288;28;20832;-72
2023/11/06 01:55:45;;;;;;;25.27;23.67;;;9.90;99.90;;;;;;5018348;28;20523;-72
2023/11/06 01:58:13;;;;;;;32.80;31.20;;;9.90;99.90;;;;;;5018327;28;20495;-72
2023/11/06 02:00:40;;;;;;;30.70;28.97;;;9.80;99.90;;;;;;5018520;28;20569;-73
2023/11/06 02:03:08;;;;;;;42.80;40.80;;;9.80;99.90;;;;;;5014748;28;20448;-73
2023/11/06 02:05:35;;;;;;;55.07;52.87;;;9.80;99.90;;;;;;5015372;28;20827;-73
2023/11/06 02:08:04;;;;;;;51.70;49.60;;;9.70;99.90;;;;;;5015140;28;20484;-73
2023/11/06 02:10:32;;;;;;;48.87;46.87;;;9.70;99.90;;;;;;5015064;28;20514;-73
2023/11/06 02:12:59;;;;;;;62.40;59.80;;;9.60;99.90;;;;;;5015037;28;20535;-73
2023/11/06 02:15:27;;;;;;;86.07;82.87;;;9.60;99.90;;;;;;5015349;28;20457;-72
2023/11/06 02:17:55;;;;;;;105.10;101.33;;;9.60;99.90;;;;;;5014974;28;20449;-73
2023/11/06 02:20:23;;;;;;;137.27;132.47;;;9.60;99.90;;;;;;5015000;28;20566;-73
2023/11/06 02:22:52;;;;;;;123.33;118.90;;;9.60;99.90;;;;;;5014874;28;21025;-73
2023/11/06 02:25:22;;;;;;;127.33;122.67;;;9.60;99.90;;;;;;5014876;28;20456;-73
2023/11/06 02:27:48;;;;;;;139.00;134.27;;;9.60;99.90;;;;;;5014821;28;20472;-73
2023/11/06 02:30:15;;;;;;;151.27;146.17;;;9.50;99.90;;;;;;5014991;28;20764;-73
2023/11/06 02:32:42;;;;;;;140.63;135.63;;;9.50;99.90;;;;;;5014977;28;20451;-73
2023/11/06 02:35:09;;;;;;;118.67;114.47;;;9.50;99.90;;;;;;5014719;28;20463;-73
2023/11/06 02:37:36;;;;;;;124.30;119.83;;;9.50;99.90;;;;;;5014510;28;20835;-73
2023/11/06 02:40:06;;;;;;;132.70;128.10;;;9.50;99.90;;;;;;5014411;28;20484;-72
2023/11/06 02:42:34;;;;;;;152.70;147.07;;;9.40;99.90;;;;;;5014491;28;20957;-72
2023/11/06 02:45:02;;;;;;;177.67;171.07;;;9.50;99.90;;;;;;5014662;28;20456;-72
2023/11/06 02:47:29;;;;;;;204.80;197.87;;;9.50;99.90;;;;;;5014307;28;20510;-72
2023/11/06 02:49:56;;;;;;;209.77;202.37;;;9.50;99.90;;;;;;5014357;28;20596;-72
2023/11/06 02:52:23;;;;;;;218.10;210.40;;;9.50;99.90;;;;;;5014281;28;20458;-73
2023/11/06 02:54:50;;;;;;;202.40;195.30;;;9.50;99.90;;;;;;5014386;28;20491;-73
2023/11/06 02:57:16;;;;;;;180.43;173.03;;;9.60;99.90;;;;;;5014384;28;20544;-72
2023/11/06 02:59:45;;;;;;;168.43;162.43;;;9.60;99.90;;;;;;5014136;28;20509;-73
2023/11/06 03:02:12;;;;;;;162.43;156.87;;;9.70;99.90;;;;;;5014274;28;20465;-73
2023/11/06 03:04:39;;;;;;;167.93;161.93;;;9.70;99.90;;;;;;5014024;28;20507;-72
2023/11/06 03:07:06;;;;;;;171.47;165.33;;;9.70;99.90;;;;;;5014134;28;20466;-72
2023/11/06 03:09:33;;;;;;;172.93;166.43;;;9.70;99.90;;;;;;5014155;28;20457;-72
2023/11/06 03:12:00;;;;;;;168.13;162.27;;;9.70;99.90;;;;;;5014122;28;20527;-72
2023/11/06 03:14:29;;;;;;;165.60;159.90;;;9.70;99.90;;;;;;5013614;28;20541;-72
2023/11/06 03:16:57;;;;;;;154.00;148.50;;;9.70;99.90;;;;;;5013842;28;20452;-72
2023/11/06 03:19:24;;;;;;;131.17;126.37;;;9.70;99.90;;;;;;5013620;28;20458;-73
2023/11/06 03:21:51;;;;;;;104.83;100.83;;;9.70;99.90;;;;;;5013793;28;20461;-73
2023/11/06 03:24:18;;;;;;;98.73;94.80;;;9.80;99.90;;;;;;5013806;28;20495;-72
2023/11/06 03:26:45;;;;;;;68.17;65.30;;;9.80;99.90;;;;;;5013752;28;20810;-72
2023/11/06 03:29:12;;;;;;;68.60;65.50;;;9.80;99.90;;;;;;5013782;28;20816;-72
2023/11/06 03:31:39;;;;;;;68.80;66.00;;;9.80;99.90;;;;;;5013653;28;20529;-72
2023/11/06 03:34:07;;;;;;;70.37;67.57;;;9.70;99.90;;;;;;5013418;28;20460;-72
2023/11/06 03:36:41;;;;;;;62.70;60.03;;;9.70;99.90;;;;;;5013768;28;20810;-72
2023/11/06 03:39:08;;;;;;;51.80;49.37;;;9.70;99.90;;;;;;5013568;28;20456;-72
2023/11/06 03:41:35;;;;;;;51.07;48.77;;;9.70;99.90;;;;;;5013372;28;20567;-72
2023/11/06 03:44:02;;;;;;;52.60;50.13;;;9.60;99.90;;;;;;5013398;28;20553;-72
2023/11/06 03:46:29;;;;;;;53.60;51.30;;;9.60;99.90;;;;;;5013186;28;20488;-72
2023/11/06 03:48:55;;;;;;;54.67;52.37;;;9.50;99.90;;;;;;5013275;28;20459;-72
2023/11/06 03:51:24;;;;;;;54.13;51.73;;;9.50;99.90;;;;;;5013265;28;20488;-72
2023/11/06 03:53:51;;;;;;;60.17;57.30;;;9.50;99.90;;;;;;5013256;28;20469;-72
2023/11/06 03:56:18;;;;;;;68.50;64.90;;;9.40;99.90;;;;;;5013338;28;20502;-72
2023/11/06 03:58:45;;;;;;;71.97;68.97;;;9.40;99.90;;;;;;5013030;28;20477;-72
2023/11/06 04:01:12;;;;;;;75.40;72.30;;;9.40;99.90;;;;;;5013139;28;21023;-72
2023/11/06 04:03:40;;;;;;;64.70;62.10;;;9.50;99.90;;;;;;5013187;28;20489;-72
2023/11/06 04:06:07;;;;;;;63.03;60.53;;;9.50;99.90;;;;;;5013117;28;20475;-72
2023/11/06 04:08:36;;;;;;;55.90;53.10;;;9.50;99.90;;;;;;5012909;28;20539;-72
2023/11/06 04:11:03;;;;;;;57.70;55.33;;;9.50;99.90;;;;;;5012960;28;20480;-72
2023/11/06 04:13:29;;;;;;;53.47;51.20;;;9.50;99.90;;;;;;5012914;28;20483;-72
2023/11/06 04:15:56;;;;;;;56.20;53.20;;;9.50;99.90;;;;;;5013144;28;20458;-72
2023/11/06 04:18:23;;;;;;;56.90;54.60;;;9.50;99.90;;;;;;5012608;28;20540;-72
2023/11/06 04:20:50;;;;;;;53.47;51.00;;;9.40;99.90;;;;;;5012697;28;20557;-72
2023/11/06 04:23:17;;;;;;;53.93;51.33;;;9.40;99.90;;;;;;5012974;28;20448;-72
2023/11/06 04:25:48;;;;;;;51.40;48.97;;;9.40;99.90;;;;;;5012124;28;20546;-72
2023/11/06 04:28:15;;;;;;;49.17;46.80;;;9.50;99.90;;;;;;5012499;28;20455;-72
2023/11/06 04:30:43;;;;;;;53.50;51.00;;;9.50;99.90;;;;;;5012935;28;20823;-72
2023/11/06 04:33:10;;;;;;;52.07;49.87;;;9.60;99.90;;;;;;5012706;28;20809;-72
2023/11/06 04:35:37;;;;;;;58.07;55.27;;;9.60;99.90;;;;;;5012614;28;20462;-72
2023/11/06 04:38:05;;;;;;;61.53;58.30;;;9.60;99.90;;;;;;5012439;28;21004;-72
2023/11/06 04:40:32;;;;;;;66.27;63.23;;;9.60;99.90;;;;;;5012473;28;20476;-72
2023/11/06 04:43:01;;;;;;;55.40;53.00;;;9.60;99.90;;;;;;5012627;28;20532;-72
2023/11/06 04:45:28;;;;;;;50.80;48.27;;;9.70;99.90;;;;;;5012737;28;20850;-72
2023/11/06 04:47:55;;;;;;;53.13;50.40;;;9.70;99.90;;;;;;5012470;28;20479;-72
2023/11/06 04:50:21;;;;;;;58.70;56.30;;;9.70;99.90;;;;;;5012475;28;20539;-72
2023/11/06 04:52:48;;;;;;;75.23;71.83;;;9.60;99.90;;;;;;5012368;28;21444;-72
2023/11/06 04:55:15;;;;;;;77.37;74.00;;;9.60;99.90;;;;;;5012351;28;20456;-72
2023/11/06 04:57:42;;;;;;;93.53;89.37;;;9.60;99.90;;;;;;5012273;28;21008;-72
2023/11/06 05:00:12;;;;;;;105.87;100.97;;;9.50;99.90;;;;;;5012484;28;20483;-72
2023/11/06 05:02:38;;;;;;;107.57;103.07;;;9.50;99.90;;;;;;5012582;28;20459;-72
2023/11/06 05:05:09;;;;;;;105.87;101.37;;;9.40;99.90;;;;;;5012421;28;20455;-72
2023/11/06 05:07:35;;;;;;;100.33;96.50;;;9.50;99.90;;;;;;5012114;28;20452;-72
2023/11/06 05:10:05;;;;;;;103.57;99.30;;;9.40;99.90;;;;;;5012610;28;20480;-72
2023/11/06 05:12:32;;;;;;;98.20;93.90;;;9.40;99.90;;;;;;5012477;28;20499;-72
2023/11/06 05:15:00;;;;;;;105.10;100.37;;;9.40;99.90;;;;;;5012308;28;20475;-72
2023/11/06 05:17:28;;;;;;;109.60;105.20;;;9.30;99.90;;;;;;5012193;28;20538;-72
2023/11/06 05:19:55;;;;;;;113.57;109.37;;;9.40;99.90;;;;;;5012075;28;20449;-72
2023/11/06 05:22:22;;;;;;;124.93;119.27;;;9.50;99.90;;;;;;5012146;28;20548;-72
2023/11/06 05:24:49;;;;;;;123.30;118.20;;;9.40;99.90;;;;;;5012396;28;20544;-72
2023/11/06 05:27:16;;;;;;;126.90;121.90;;;9.40;99.90;;;;;;5012120;28;20483;-72
2023/11/06 05:29:44;;;;;;;136.67;130.30;;;9.40;99.90;;;;;;5012017;28;20931;-72
2023/11/06 05:32:10;;;;;;;130.23;124.87;;;9.50;99.90;;;;;;5012057;28;20965;-72
2023/11/06 05:34:39;;;;;;;97.57;92.93;;;9.70;99.90;;;;;;5011984;28;20960;-72
2023/11/06 05:37:06;;;;;;;69.30;66.10;;;9.80;99.90;;;;;;5012404;28;20480;-72
2023/11/06 05:39:35;;;;;;;48.23;45.93;;;9.90;99.90;;;;;;5015935;28;20844;-72
2023/11/06 05:42:02;;;;;;;42.93;40.70;;;10.00;99.90;;;;;;5015861;28;20927;-72
2023/11/06 05:44:29;;;;;;;36.63;33.87;;;9.90;99.90;;;;;;5015504;28;20452;-72
2023/11/06 05:46:56;;;;;;;37.13;35.23;;;9.90;99.90;;;;;;5015614;28;20451;-72
2023/11/06 05:49:23;;;;;;;34.30;31.63;;;9.80;99.90;;;;;;5015596;28;20449;-72
2023/11/06 05:51:52;;;;;;;32.73;29.63;;;9.90;99.90;;;;;;5015719;28;20448;-72
2023/11/06 05:54:19;;;;;;;28.27;26.03;;;9.90;99.90;;;;;;5015573;28;20463;-72
2023/11/06 05:56:46;;;;;;;26.43;24.17;;;10.00;99.90;;;;;;5015295;28;20484;-72
2023/11/06 05:59:13;;;;;;;24.03;21.93;;;9.90;99.90;;;;;;5015834;28;20503;-72
2023/11/06 06:01:40;;;;;;;20.67;18.60;;;10.00;99.90;;;;;;5015315;28;20480;-72
2023/11/06 06:04:07;;;;;;;23.30;21.20;;;9.90;99.90;;;;;;5015253;28;20538;-72
2023/11/06 06:06:34;;;;;;;23.97;22.27;;;9.80;99.90;;;;;;5015149;28;20449;-72
2023/11/06 06:09:04;;;;;;;27.27;25.70;;;9.70;99.90;;;;;;5015488;28;20451;-72
2023/11/06 06:11:36;;;;;;;37.37;34.80;;;9.70;99.90;;;;;;5015290;28;20498;-72
2023/11/06 06:14:03;;;;;;;31.70;29.87;;;9.70;99.90;;;;;;5015379;28;20528;-72
2023/11/06 06:16:30;;;;;;;31.13;28.50;;;9.70;99.90;;;;;;5015030;28;20451;-72
2023/11/06 06:18:57;;;;;;;22.90;21.00;;;9.70;99.90;;;;;;5014862;28;20488;-72
2023/11/06 06:21:24;;;;;;;17.13;15.33;;;9.80;99.90;;;;;;5015059;28;20481;-72
2023/11/06 06:23:50;;;;;;;21.07;13.23;;;9.80;99.90;;;;;;5014701;28;20455;-72
2023/11/06 06:26:19;;;;;;;16.87;10.17;;;9.70;99.90;;;;;;5014945;28;20487;-72
2023/11/06 06:28:45;;;;;;;15.13;13.27;;;9.70;99.90;;;;;;5014652;28;20449;-71
2023/11/06 06:31:13;;;;;;;19.93;13.33;;;9.60;99.90;;;;;;5014850;28;20534;-72
2023/11/06 06:33:40;;;;;;;15.00;12.30;;;9.60;99.90;;;;;;5014693;28;20447;-72
2023/11/06 06:36:11;;;;;;;18.17;13.60;;;9.50;99.90;;;;;;5014896;28;20543;-72
2023/11/06 06:38:38;;;;;;;20.87;17.73;;;9.40;99.90;;;;;;5014942;28;20452;-72
2023/11/06 06:41:06;;;;;;;26.13;21.47;;;9.30;99.90;;;;;;5014657;28;20484;-72
2023/11/06 06:43:35;;;;;;;24.57;22.97;;;9.30;99.90;;;;;;5014586;28;20460;-72
2023/11/06 06:46:02;;;;;;;31.13;28.80;;;9.20;99.90;;;;;;5014683;28;20455;-71
2023/11/06 06:48:29;;;;;;;41.63;37.90;;;9.00;99.90;;;;;;5014067;28;20449;-72
2023/11/06 06:50:56;;;;;;;44.83;42.27;;;9.00;99.90;;;;;;5014315;28;20540;-72
2023/11/06 06:53:23;;;;;;;49.50;46.07;;;9.00;99.90;;;;;;5013337;28;20505;-71
2023/11/06 06:55:50;;;;;;;51.17;48.07;;;9.10;99.90;;;;;;5014190;28;20958;-71
2023/11/06 06:58:17;;;;;;;60.53;57.37;;;9.00;99.90;;;;;;5013997;28;20446;-72
2023/11/06 07:00:46;;;;;;;54.43;51.50;;;9.00;99.90;;;;;;5014452;28;20822;-72
2023/11/06 07:03:12;;;;;;;52.50;50.00;;;9.00;99.90;;;;;;5014111;28;20959;-72
2023/11/06 07:05:39;;;;;;;50.30;47.27;;;9.10;99.90;;;;;;5014210;28;20459;-71
2023/11/06 07:08:07;;;;;;;45.77;42.87;;;9.10;99.90;;;;;;5013850;28;20489;-71
2023/11/06 07:10:34;;;;;;;31.93;29.93;;;9.20;99.90;;;;;;5013985;28;20451;-71
2023/11/06 07:13:03;;;;;;;30.57;28.27;;;9.20;99.90;;;;;;5013828;28;20461;-72
2023/11/06 07:15:30;;;;;;;27.17;24.37;;;9.30;99.90;;;;;;5014220;28;20480;-71
2023/11/06 07:18:01;;;;;;;19.57;17.30;;;9.40;99.90;;;;;;5013885;28;20457;-71
2023/11/06 07:20:29;;;;;;;18.63;13.10;;;9.40;99.90;;;;;;5013923;28;20451;-71
2023/11/06 07:22:57;;;;;;;16.27;11.87;;;9.50;99.90;;;;;;5013710;28;20456;-71
2023/11/06 07:25:24;;;;;;;19.00;12.50;;;9.60;99.90;;;;;;5013756;28;20447;-71
2023/11/06 07:27:51;;;;;;;13.43;8.30;;;9.70;99.90;;;;;;5013560;28;20965;-71
2023/11/06 07:30:18;;;;;;;11.70;7.37;;;9.80;99.90;;;;;;5013857;28;20542;-71
2023/11/06 07:32:45;;;;;;;14.03;4.33;;;9.90;99.90;;;;;;5013784;28;20447;-71
2023/11/06 07:35:13;;;;;;;8.77;5.17;;;9.90;99.90;;;;;;5013760;28;20532;-71
2023/11/06 07:37:41;;;;;;;12.07;3.30;;;10.00;99.90;;;;;;5012726;28;20507;-71
2023/11/06 07:40:11;;;;;;;18.73;4.53;;;10.20;99.90;;;;;;5013352;28;20469;-71
2023/11/06 07:42:38;;;;;;;12.40;3.03;;;10.20;99.90;;;;;;5013008;28;20531;-71
2023/11/06 07:45:07;;;;;;;13.47;3.20;;;10.20;99.90;;;;;;5013097;28;20540;-71
2023/11/06 07:47:36;;;;;;;11.63;3.93;;;10.20;99.90;;;;;;5013228;28;20455;-71
2023/11/06 07:50:03;;;;;;;10.87;3.40;;;10.20;99.90;;;;;;5013163;28;20961;-71
2023/11/06 07:52:32;;;;;;;16.43;3.97;;;10.20;99.90;;;;;;5012606;28;20547;-71
2023/11/06 07:54:59;;;;;;;10.40;2.90;;;10.10;99.90;;;;;;5012984;28;20482;-71
2023/11/06 07:57:26;;;;;;;20.67;3.70;;;10.10;99.90;;;;;;5013137;28;20941;-71
2023/11/06 07:59:53;;;;;;;6.93;3.10;;;10.10;99.90;;;;;;5012639;28;20874;-71
2023/11/06 08:02:20;;;;;;;13.70;3.67;;;10.10;99.90;;;;;;5012827;28;20484;-71
2023/11/06 08:04:46;;;;;;;14.73;5.55;;;10.10;99.90;;;;;;5012558;28;20888;-71
2023/11/06 08:07:14;;;;;;;14.30;3.30;;;10.20;99.90;;;;;;5014206;28;20205;-71
2023/11/06 08:09:43;;;;;;;12.13;3.83;;;10.20;99.90;;;;;;5013440;28;20454;-71
2023/11/06 08:12:12;;;;;;;9.17;3.10;;;10.30;99.90;;;;;;5013436;28;20699;-71
2023/11/06 08:14:39;;;;;;;11.00;3.20;;;10.30;99.90;;;;;;5012835;28;20536;-72
2023/11/06 08:17:06;;;;;;;14.43;3.17;;;10.40;99.90;;;;;;5012878;28;20537;-71
2023/11/06 08:19:38;;;;;;;10.33;4.30;;;10.40;99.90;;;;;;5012989;28;20449;-71
2023/11/06 08:22:07;;;;;;;16.17;3.83;;;10.50;99.90;;;;;;5012793;28;20480;-72
2023/11/06 08:24:34;;;;;;;8.03;3.33;;;10.50;99.90;;;;;;5012603;28;20537;-71
2023/11/06 08:27:03;;;;;;;11.30;5.30;;;10.50;99.90;;;;;;5012865;28;20481;-71
2023/11/06 08:29:29;;;;;;;15.07;3.30;;;10.60;99.90;;;;;;5012884;28;20454;-71
2023/11/06 08:31:59;;;;;;;12.37;2.77;;;10.60;99.90;;;;;;5012416;28;20451;-71
2023/11/06 08:34:26;;;;;;;9.93;2.90;;;10.70;99.90;;;;;;5012317;28;20485;-71
2023/11/06 08:36:53;;;;;;;13.63;3.17;;;10.70;99.90;;;;;;5012506;28;20453;-71
2023/11/06 08:39:20;;;;;;;11.50;3.25;;;10.60;99.90;;;;;;5011661;28;20462;-71
2023/11/06 08:41:47;;;;;;;10.60;3.10;;;10.70;99.90;;;;;;5012418;28;20220;-71
2023/11/06 08:44:15;;;;;;;6.43;2.20;;;10.80;99.90;;;;;;5011948;28;20537;-72
2023/11/06 08:46:43;;;;;;;11.83;2.80;;;10.90;99.90;;;;;;5012844;28;20933;-71
2023/11/06 08:49:10;;;;;;;9.10;2.30;;;11.00;99.90;;;;;;5013411;28;20456;-71
2023/11/06 08:51:37;;;;;;;10.63;2.70;;;11.10;99.90;;;;;;5013124;28;20447;-70
2023/11/06 08:54:06;;;;;;;8.27;1.93;;;11.40;98.20;;;;;;5013118;28;20458;-71
2023/11/06 08:56:33;;;;;;;12.43;2.60;;;11.60;95.00;;;;;;5013396;28;20543;-71
2023/11/06 08:59:01;;;;;;;9.73;1.97;;;11.90;93.30;;;;;;5012850;28;20959;-70
2023/11/06 09:01:29;;;;;;;12.80;2.40;;;12.10;92.20;;;;;;5012083;28;20482;-70
2023/11/06 09:03:56;;;;;;;9.20;1.83;;;12.40;92.00;;;;;;5012428;28;20459;-71
2023/11/06 09:06:23;;;;;;;12.13;2.77;;;12.60;92.00;;;;;;5012462;28;20971;-71
2023/11/06 09:08:50;;;;;;;10.10;2.30;;;12.80;92.10;;;;;;5012639;28;20515;-70
2023/11/06 09:11:17;;;;;;;14.63;3.20;;;12.80;87.20;;;;;;5013880;28;20791;-70
2023/11/06 09:13:44;;;;;;;6.77;2.80;;;13.00;84.40;;;;;;5016958;28;20540;-70
2023/11/06 09:16:11;;;;;;;10.27;2.27;;;13.10;84.40;;;;;;5017367;28;20540;-70
2023/11/06 09:18:40;;;;;;;7.37;2.07;;;13.30;84.90;;;;;;5017312;28;20973;-70
2023/11/06 09:21:13;;;;;;;12.17;2.90;;;13.40;80.10;;;;;;5017556;28;20448;-70
2023/11/06 09:23:40;;;;;;;10.43;2.70;;;13.70;84.20;;;;;;5016524;28;20864;-70
2023/11/06 09:26:08;;;;;;;9.60;2.13;;;13.60;86.30;;;;;;5016257;28;20544;-70
2023/11/06 09:28:35;;;;;;;13.97;2.80;;;13.80;80.80;;;;;;5016078;28;21023;-70
2023/11/06 09:31:02;;;;;;;7.97;3.20;;;13.90;83.20;;;;;;5015975;28;20463;-71
2023/11/06 09:33:29;;;;;;;10.07;2.67;;;14.00;80.60;;;;;;5015892;28;20451;-70
2023/11/06 09:35:57;;;;;;;12.40;2.83;;;14.10;80.60;;;;;;5015974;28;20480;-70
2023/11/06 09:38:24;;;;;;;12.47;3.20;;;14.10;81.50;;;;;;5015810;28;20532;-69
2023/11/06 09:40:52;;;;;;;12.60;2.17;;;14.00;80.50;;;;;;5015992;28;21049;-70
2023/11/06 09:43:19;;;;;;;11.73;2.57;;;14.00;80.60;;;;;;5015799;28;20487;-70
2023/11/06 09:45:49;;;;;;;8.80;2.43;;;13.80;80.40;;;;;;5016014;28;20455;-69
2023/11/06 09:48:19;;;;;;;10.30;2.20;;;14.00;80.60;;;;;;5017155;28;20452;-72
2023/11/06 09:50:48;;;;;;;6.53;2.00;;;14.10;80.60;;;;;;5016702;28;20863;-72
2023/11/06 09:53:18;;;;;;;10.33;2.30;;;14.00;72.80;;;;;;5015455;28;20465;-70
2023/11/06 09:55:46;;;;;;;6.77;2.37;;;14.00;72.70;;;;;;5015968;28;20453;-70
2023/11/06 09:58:13;;;;;;;10.50;2.50;;;14.20;72.90;;;;;;5015658;28;20456;-70
2023/11/06 10:00:40;;;;;;;9.93;2.90;;;14.90;73.50;;;;;;5015455;28;20956;-71
2023/11/06 10:03:07;;;;;;;12.07;2.60;;;15.10;65.60;;;;;;5015195;28;20526;-71
2023/11/06 10:05:34;;;;;;;10.40;2.10;;;15.40;65.90;;;;;;5015439;28;20532;-70
2023/11/06 10:08:01;;;;;;;10.67;2.40;;;15.70;66.10;;;;;;5016772;28;20453;-71
2023/11/06 10:10:29;;;;;;;12.47;3.07;;;16.00;64.00;;;;;;5016729;28;20457;-72
2023/11/06 10:13:05;;;;;;;14.07;2.87;;;15.80;58.00;;;;;;5015816;28;20455;-73
2023/11/06 10:15:32;;;;;;;17.60;2.90;;;15.20;57.80;;;;;;5015785;28;20479;-72
2023/11/06 10:18:13;;;;;;;11.13;2.43;;;15.30;65.80;;;;;;5015646;28;20536;-72
2023/11/06 10:20:44;;;;;;;8.83;2.17;;;15.40;66.30;;;;;;5015210;28;21003;-71
2023/11/06 10:23:11;;;;;;;11.70;2.23;;;15.10;63.90;;;;;;5014459;28;20512;-71
2023/11/06 10:25:40;;;;;;;9.90;2.17;;;14.60;65.20;;;;;;5015581;28;20451;-71
2023/11/06 10:28:18;;;;;;;10.03;2.53;;;14.20;64.80;;;;;;5014595;28;20548;-71
2023/11/06 10:30:49;;;;;;;10.23;2.60;;;13.90;64.50;;;;;;5014341;28;20460;-72
2023/11/06 10:33:17;;;;;;;9.82;2.63;;;14.10;69.20;;;;;;5014312;28;20538;-71
2023/11/06 10:35:45;;;;;;;10.83;2.40;;;14.60;69.40;;;;;;5015297;28;20218;-72
2023/11/06 10:38:29;;;;;;;9.67;1.97;;;15.10;65.60;;;;;;5015181;28;20898;-72
2023/11/06 10:40:58;;;;;;;10.33;1.83;;;15.00;65.50;;;;;;5015499;28;20489;-72
2023/11/06 10:43:25;;;;;;;10.13;1.73;;;15.50;65.80;;;;;;5015274;28;20473;-71
2023/11/06 10:45:53;;;;;;;11.63;2.47;;;16.00;58.20;;;;;;5015205;28;20464;-73
2023/11/06 10:48:32;;;;;;;11.63;2.10;;;16.20;58.30;;;;;;5014854;28;20464;-73
2023/11/06 10:51:00;;;;;;;10.73;2.13;;;15.90;58.00;;;;;;5015283;28;20464;-73
2023/11/06 10:53:31;;;;;;;6.40;2.27;;;15.60;57.80;;;;;;5015132;28;20543;-73
2023/11/06 10:56:03;;;;;;;7.70;1.33;;;15.90;58.00;;;;;;5015068;28;20475;-72
2023/11/06 10:58:31;;;;;;;7.47;1.97;;;16.10;58.30;;;;;;5014739;28;20951;-73
2023/11/06 11:01:00;;;;;;;7.37;1.90;;;16.00;58.10;;;;;;5013858;28;20457;-72
2023/11/06 11:03:31;;;;;;;9.83;2.50;;;15.40;59.00;;;;;;5015167;28;20565;-71
2023/11/06 11:05:59;;;;;;;7.10;1.67;;;15.10;64.60;;;;;;5015239;28;20925;-71
2023/11/06 11:08:26;;;;;;;7.20;1.97;;;15.00;65.50;;;;;;5015627;28;20539;-72
2023/11/06 11:10:56;;;;;;;6.43;1.50;;;14.80;65.30;;;;;;5014753;28;20544;-72
2023/11/06 11:13:24;;;;;;;6.93;1.87;;;14.80;65.30;;;;;;5013650;28;20457;-72
2023/11/06 11:15:51;;;;;;;6.53;1.80;;;15.00;63.10;;;;;;5014508;28;20497;-72
2023/11/06 11:18:29;;;;;;;7.27;1.53;;;15.30;57.50;;;;;;5015380;28;20565;-72
2023/11/06 11:20:58;;;;;;;8.40;1.60;;;15.10;57.30;;;;;;5014908;28;20915;-72
2023/11/06 11:23:38;;;;;;;6.40;1.50;;;14.90;62.10;;;;;;5014314;28;20476;-72
2023/11/06 11:26:09;;;;;;;8.40;2.43;;;14.50;61.30;;;;;;5014788;28;20459;-72
2023/11/06 11:28:55;;;;;;;7.53;1.63;;;14.20;61.50;;;;;;5014066;28;20461;-72
2023/11/06 11:31:34;;;;;;;5.97;1.00;;;14.00;61.70;;;;;;5013744;28;21015;-72
2023/11/06 11:34:01;;;;;;;6.90;1.30;;;13.90;64.40;;;;;;5014612;28;20441;-72
2023/11/06 11:36:29;;;;;;;6.20;1.30;;;13.70;64.30;;;;;;5014351;28;20539;-73
2023/11/06 11:38:57;;;;;;;7.13;1.47;;;13.60;64.30;;;;;;5014275;28;20452;-73
2023/11/06 11:41:24;;;;;;;5.90;1.13;;;13.40;64.10;;;;;;5014600;28;20453;-72
2023/11/06 11:44:09;;;;;;;4.87;1.00;;;13.30;64.00;;;;;;5013400;28;20480;-73
2023/11/06 11:46:54;;;;;;;7.10;1.57;;;13.30;64.00;;;;;;5014058;28;20769;-73
2023/11/06 11:49:41;;;;;;;9.30;1.50;;;13.20;63.90;;;;;;5014119;28;20449;-73
2023/11/06 11:52:11;;;;;;;7.60;1.30;;;13.20;63.90;;;;;;5013910;28;20451;-73
2023/11/06 11:54:39;;;;;;;5.77;1.23;;;13.20;63.90;;;;;;5013672;28;20468;-72
2023/11/06 11:57:08;;;;;;;4.93;1.10;;;13.10;64.20;;;;;;5014055;28;20544;-73
2023/11/06 11:59:41;;;;;;;7.10;1.20;;;13.10;67.00;;;;;;5013798;28;20445;-73
2023/11/06 12:02:27;;;;;;;7.87;1.70;;;13.10;71.70;;;;;;5013743;28;20956;-73
2023/11/06 12:04:59;;;;;;;6.40;1.13;;;13.00;71.80;;;;;;5013854;28;20928;-73
2023/11/06 12:07:28;;;;;;;8.70;2.20;;;13.10;71.90;;;;;;5013930;28;20471;-73
2023/11/06 12:09:56;;;;;;;6.43;1.80;;;13.10;71.90;;;;;;5014013;28;20481;-73
2023/11/06 12:12:25;;;;;;;8.80;1.40;;;13.10;71.90;;;;;;5013777;28;20532;-73
2023/11/06 12:14:54;;;;;;;5.00;1.70;;;12.90;71.70;;;;;;5013465;28;21021;-73
2023/11/06 12:17:33;;;;;;;4.67;1.40;;;12.90;71.70;;;;;;5013138;28;20868;-72
2023/11/06 12:20:00;;;;;;;6.73;1.10;;;12.90;71.70;;;;;;5013618;28;20465;-73
2023/11/06 12:22:28;;;;;;;9.97;1.60;;;13.10;75.80;;;;;;5013556;28;20484;-73
2023/11/06 12:24:56;;;;;;;8.50;1.43;;;13.20;72.00;;;;;;5013287;28;20544;-73
2023/11/06 12:27:32;;;;;;;5.87;1.30;;;13.40;72.20;;;;;;5013298;28;20481;-73
2023/11/06 12:30:01;;;;;;;5.10;1.40;;;13.50;72.20;;;;;;5013315;28;20453;-73
2023/11/06 12:32:29;;;;;;;13.30;1.90;;;13.70;72.40;;;;;;5013699;28;20446;-73
2023/11/06 12:35:07;;;;;;;4.57;1.10;;;13.80;72.50;;;;;;5013278;28;21080;-73
2023/11/06 12:37:54;;;;;;;4.60;1.20;;;14.10;72.40;;;;;;5013052;28;20484;-73
2023/11/06 12:40:26;;;;;;;5.50;1.00;;;14.80;65.30;;;;;;5012335;28;20521;-72